createdAt,value
2023-04-12T00:00:16.068Z,9.76
2023-04-12T00:02:46.212Z,9.76
2023-04-12T00:05:15.027Z,9.72
2023-04-12T00:07:47.010Z,9.72
2023-04-12T00:10:15.225Z,9.74
2023-04-12T00:12:43.964Z,9.77
2023-04-12T00:15:12.463Z,9.76
2023-04-12T00:17:41.105Z,9.75
2023-04-12T00:20:13.019Z,9.76
2023-04-12T00:22:42.742Z,9.78
2023-04-12T00:25:11.656Z,9.80
2023-04-12T00:27:40.517Z,9.78
2023-04-12T00:30:10.165Z,9.76
2023-04-12T00:32:38.305Z,9.77
2023-04-12T00:35:07.529Z,9.72
2023-04-12T00:37:39.152Z,9.72
2023-04-12T00:40:10.398Z,9.74
2023-04-12T00:42:39.078Z,9.76
2023-04-12T00:45:08.283Z,9.79
2023-04-12T00:47:39.918Z,9.69
2023-04-12T00:50:10.972Z,9.63
2023-04-12T00:52:42.193Z,9.70
2023-04-12T00:55:11.277Z,9.72
2023-04-12T00:57:41.217Z,9.76
2023-04-12T01:00:13.842Z,9.82
2023-04-12T01:02:48.061Z,9.89
2023-04-12T01:05:22.605Z,9.92
2023-04-12T01:08:10.808Z,9.93
2023-04-12T01:10:46.299Z,9.94
2023-04-12T01:13:29.977Z,9.95
2023-04-12T01:16:09.406Z,10.01
2023-04-12T01:18:42.530Z,10.04
2023-04-12T01:21:21.163Z,10.08
2023-04-12T01:24:03.082Z,10.10
2023-04-12T01:26:38.011Z,10.18
2023-04-12T01:29:12.787Z,10.22
2023-04-12T01:31:44.763Z,10.29
2023-04-12T01:34:14.696Z,10.33
2023-04-12T01:36:47.549Z,10.37
2023-04-12T01:39:17.130Z,10.44
2023-04-12T01:41:49.277Z,10.47
2023-04-12T01:44:20.555Z,10.47
2023-04-12T01:46:50.548Z,10.47
2023-04-12T01:49:20.603Z,10.49
2023-04-12T01:51:56.637Z,10.48
2023-04-12T01:54:30.739Z,10.49
2023-04-12T01:57:05.451Z,10.50
2023-04-12T01:59:42.269Z,10.50
2023-04-12T02:02:13.141Z,10.48
2023-04-12T02:04:43.444Z,10.46
2023-04-12T02:07:11.521Z,10.43
2023-04-12T02:09:40.869Z,10.44
2023-04-12T02:12:10.654Z,10.47
2023-04-12T02:14:40.577Z,10.48
2023-04-12T02:17:10.204Z,10.45
2023-04-12T02:19:39.247Z,10.46
2023-04-12T02:22:08.432Z,10.43
2023-04-12T02:24:36.757Z,10.42
2023-04-12T02:27:05.435Z,10.40
2023-04-12T02:29:34.088Z,10.38
2023-04-12T02:32:03.732Z,10.36
2023-04-12T02:34:34.791Z,10.41
2023-04-12T02:37:17.740Z,10.44
2023-04-12T02:39:47.334Z,10.46
2023-04-12T02:42:16.591Z,10.46
2023-04-12T02:44:47.953Z,10.46
2023-04-12T02:47:18.488Z,10.31
2023-04-12T02:49:49.511Z,10.21
2023-04-12T02:52:19.638Z,10.16
2023-04-12T02:55:06.820Z,10.08
2023-04-12T02:57:35.758Z,10.00
2023-04-12T03:00:09.432Z,9.96
2023-04-12T03:02:45.262Z,9.95
2023-04-12T03:05:21.282Z,9.94
2023-04-12T03:07:50.610Z,9.88
2023-04-12T03:10:22.982Z,9.82
2023-04-12T03:13:01.975Z,9.76
2023-04-12T03:15:36.808Z,9.71
2023-04-12T03:18:07.460Z,9.62
2023-04-12T03:20:47.497Z,9.58
2023-04-12T03:23:16.679Z,9.57
2023-04-12T03:25:48.068Z,9.53
2023-04-12T03:28:36.001Z,9.51
2023-04-12T03:31:07.945Z,9.49
2023-04-12T03:33:46.507Z,9.44
2023-04-12T03:36:29.548Z,9.37
2023-04-12T03:39:05.998Z,9.34
2023-04-12T03:41:36.465Z,9.28
2023-04-12T03:44:06.739Z,9.26
2023-04-12T03:46:37.191Z,9.23
2023-04-12T03:49:11.372Z,9.15
2023-04-12T03:51:43.134Z,9.17
2023-04-12T03:54:11.894Z,9.15
2023-04-12T03:56:57.005Z,9.16
2023-04-12T03:59:34.194Z,8.90
2023-04-12T04:02:03.775Z,8.59
2023-04-12T04:04:38.397Z,7.86
2023-04-12T04:07:11.909Z,7.97
2023-04-12T04:09:44.245Z,7.87
2023-04-12T04:12:13.621Z,7.56
2023-04-12T04:14:46.375Z,7.62
2023-04-12T04:17:24.425Z,7.49
2023-04-12T04:19:54.966Z,7.46
2023-04-12T04:22:23.102Z,7.56
2023-04-12T04:24:53.308Z,7.38
2023-04-12T04:27:22.735Z,7.25
2023-04-12T04:29:53.732Z,7.53
2023-04-12T04:32:21.883Z,7.65
2023-04-12T04:34:56.624Z,7.73
2023-04-12T04:37:25.791Z,7.86
2023-04-12T04:39:54.339Z,7.69
2023-04-12T04:42:22.715Z,7.35
2023-04-12T04:45:04.570Z,7.46
2023-04-12T04:47:39.140Z,7.66
2023-04-12T04:50:10.455Z,7.50
2023-04-12T04:52:39.576Z,7.23
2023-04-12T04:55:13.089Z,7.22
2023-04-12T04:57:46.377Z,7.20
2023-04-12T05:00:16.485Z,7.29
2023-04-12T05:02:47.946Z,6.90
2023-04-12T05:05:26.159Z,7.25
2023-04-12T05:08:02.387Z,7.25
2023-04-12T05:10:32.613Z,7.42
2023-04-12T05:13:03.736Z,7.63
2023-04-12T05:15:32.447Z,7.77
2023-04-12T05:18:02.102Z,7.49
2023-04-12T05:20:33.276Z,6.91
2023-04-12T05:23:02.490Z,7.11
2023-04-12T05:25:31.054Z,7.37
2023-04-12T05:28:07.376Z,7.04
2023-04-12T05:30:35.843Z,7.24
2023-04-12T05:33:06.162Z,7.32
2023-04-12T05:35:37.219Z,7.47
2023-04-12T05:38:06.367Z,7.18
2023-04-12T05:40:36.564Z,7.07
2023-04-12T05:43:06.258Z,6.95
2023-04-12T05:45:34.362Z,7.19
2023-04-12T05:48:03.058Z,7.08
2023-04-12T05:50:31.456Z,7.48
2023-04-12T05:53:01.812Z,7.09
2023-04-12T05:55:32.538Z,7.32
2023-04-12T05:58:02.036Z,7.13
2023-04-12T06:00:32.194Z,7.35
2023-04-12T06:03:00.645Z,7.19
2023-04-12T06:05:29.155Z,7.18
2023-04-12T06:08:00.158Z,7.42
2023-04-12T06:10:30.072Z,6.97
2023-04-12T06:12:58.677Z,7.32
2023-04-12T06:15:28.113Z,7.08
2023-04-12T06:17:56.739Z,7.21
2023-04-12T06:20:25.059Z,7.14
2023-04-12T06:22:53.903Z,7.57
2023-04-12T06:25:23.126Z,7.60
2023-04-12T06:27:53.472Z,6.89
2023-04-12T06:30:23.797Z,7.04
2023-04-12T06:32:54.483Z,7.53
2023-04-12T06:35:24.392Z,7.44
2023-04-12T06:37:52.824Z,7.71
2023-04-12T06:40:22.455Z,7.91
2023-04-12T06:42:50.902Z,7.89
2023-04-12T06:45:25.005Z,7.96
2023-04-12T06:47:55.902Z,7.94
2023-04-12T06:50:24.560Z,8.12
2023-04-12T06:52:52.634Z,7.98
2023-04-12T06:55:21.459Z,7.50
2023-04-12T06:57:52.124Z,7.87
2023-04-12T07:00:20.721Z,7.93
2023-04-12T07:02:51.160Z,7.81
2023-04-12T07:05:19.526Z,7.62
2023-04-12T07:07:47.593Z,7.53
2023-04-12T07:10:16.342Z,8.04
2023-04-12T07:12:44.429Z,8.19
2023-04-12T07:15:12.943Z,8.63
2023-04-12T07:17:41.374Z,8.84
2023-04-12T07:20:12.274Z,9.05
2023-04-12T07:22:40.807Z,8.93
2023-04-12T07:25:10.997Z,9.20
2023-04-12T07:27:39.324Z,9.48
2023-04-12T07:30:08.768Z,9.68
2023-04-12T07:32:37.923Z,9.49
2023-04-12T07:35:07.276Z,9.77
2023-04-12T07:37:37.423Z,10.09
2023-04-12T07:40:06.802Z,10.09
2023-04-12T07:42:36.394Z,10.11
2023-04-12T07:45:04.714Z,10.10
2023-04-12T07:47:33.203Z,9.76
2023-04-12T07:50:02.240Z,9.44
2023-04-12T07:52:30.744Z,9.55
2023-04-12T07:55:02.802Z,10.01
2023-04-12T07:57:33.663Z,9.99
2023-04-12T08:00:02.578Z,10.04
2023-04-12T08:02:41.579Z,9.87
2023-04-12T08:05:10.866Z,10.01
2023-04-12T08:07:38.903Z,9.91
2023-04-12T08:10:10.813Z,9.99
2023-04-12T08:12:39.320Z,9.84
2023-04-12T08:15:09.464Z,9.84
2023-04-12T08:17:37.858Z,9.90
2023-04-12T08:20:07.852Z,9.51
2023-04-12T08:22:36.855Z,9.77
2023-04-12T08:25:05.564Z,9.87
2023-04-12T08:27:35.087Z,9.99
2023-04-12T08:30:03.426Z,9.89
2023-04-12T08:32:31.737Z,10.05
2023-04-12T08:35:00.342Z,9.95
2023-04-12T08:37:28.855Z,9.75
2023-04-12T08:39:57.671Z,9.61
2023-04-12T08:42:26.050Z,9.42
2023-04-12T08:44:55.769Z,9.60
2023-04-12T08:47:24.123Z,9.59
2023-04-12T08:49:53.010Z,9.78
2023-04-12T08:52:21.204Z,9.21
2023-04-12T08:54:49.229Z,8.94
2023-04-12T08:57:20.326Z,9.24
2023-04-12T08:59:53.514Z,9.34
2023-04-12T09:02:24.201Z,9.49
2023-04-12T09:04:53.880Z,9.39
2023-04-12T09:07:28.136Z,9.24
2023-04-12T09:09:59.680Z,9.48
2023-04-12T09:12:28.654Z,9.75
2023-04-12T09:15:09.749Z,9.08
2023-04-12T09:17:40.567Z,8.73
2023-04-12T09:20:26.174Z,9.77
2023-04-12T09:22:55.627Z,10.63
2023-04-12T09:25:41.487Z,10.58
2023-04-12T09:28:21.343Z,10.99
2023-04-12T09:30:52.089Z,11.34
2023-04-12T09:33:23.903Z,11.32
2023-04-12T09:35:52.416Z,11.07
2023-04-12T09:38:20.565Z,11.58
2023-04-12T09:40:50.255Z,12.11
2023-04-12T09:43:18.753Z,12.14
2023-04-12T09:45:46.933Z,12.46
2023-04-12T09:48:22.690Z,12.75
2023-04-12T09:51:00.026Z,13.13
2023-04-12T09:53:29.410Z,13.48
2023-04-12T09:56:00.581Z,13.79
2023-04-12T09:58:32.005Z,13.85
2023-04-12T10:01:05.227Z,14.53
2023-04-12T10:03:35.216Z,14.88
2023-04-12T10:06:04.754Z,14.26
2023-04-12T10:08:33.585Z,14.16
2023-04-12T10:11:02.748Z,14.50
2023-04-12T10:13:34.033Z,14.52
2023-04-12T10:16:06.063Z,14.91
2023-04-12T10:18:37.787Z,15.52
2023-04-12T10:21:07.380Z,15.84
2023-04-12T10:23:36.444Z,15.62
2023-04-12T10:26:06.808Z,16.13
2023-04-12T10:28:37.402Z,16.40
2023-04-12T10:31:31.050Z,17.00
2023-04-12T10:34:03.705Z,17.13
2023-04-12T10:37:03.628Z,17.55
2023-04-12T10:39:40.169Z,17.43
2023-04-12T10:42:32.334Z,17.69
2023-04-12T10:45:32.183Z,17.86
2023-04-12T10:48:01.701Z,17.90
2023-04-12T10:50:34.406Z,17.93
2023-04-12T10:53:27.494Z,17.97
2023-04-12T10:55:55.549Z,17.92
2023-04-12T10:58:58.944Z,17.47
2023-04-12T11:01:33.288Z,17.26
2023-04-12T11:04:12.392Z,16.95
2023-04-12T11:06:51.372Z,16.87
2023-04-12T11:09:44.117Z,16.62
2023-04-12T11:12:32.897Z,16.56
2023-04-12T11:15:03.040Z,16.16
2023-04-12T11:17:56.285Z,15.95
2023-04-12T11:20:28.241Z,15.92
2023-04-12T11:22:59.027Z,16.30
2023-04-12T11:25:27.306Z,16.36
2023-04-12T11:27:57.302Z,16.68
2023-04-12T11:30:29.176Z,16.78
2023-04-12T11:32:57.343Z,16.77
2023-04-12T11:35:27.722Z,16.79
2023-04-12T11:37:57.860Z,16.73
2023-04-12T11:40:27.202Z,16.51
2023-04-12T11:42:57.729Z,16.69
2023-04-12T11:45:26.761Z,16.73
2023-04-12T11:47:58.416Z,16.77
2023-04-12T11:50:32.567Z,16.41
2023-04-12T11:53:15.268Z,16.67
2023-04-12T11:55:49.099Z,16.28
2023-04-12T11:58:17.596Z,16.47
2023-04-12T12:00:47.059Z,16.75
2023-04-12T12:03:16.638Z,16.95
2023-04-12T12:05:44.943Z,17.10
2023-04-12T12:08:15.673Z,17.08
2023-04-12T12:10:59.913Z,17.08
2023-04-12T12:13:29.227Z,17.12
2023-04-12T12:15:58.221Z,17.14
2023-04-12T12:18:29.104Z,17.16
2023-04-12T12:20:57.628Z,17.28
2023-04-12T12:23:44.355Z,17.39
2023-04-12T12:26:21.245Z,17.55
2023-04-12T12:28:54.503Z,17.73
2023-04-12T12:31:24.617Z,17.65
2023-04-12T12:33:57.145Z,17.57
2023-04-12T12:36:33.026Z,17.66
2023-04-12T12:39:11.231Z,17.84
2023-04-12T12:41:41.118Z,18.01
2023-04-12T12:44:11.559Z,17.65
2023-04-12T12:46:51.375Z,17.80
2023-04-12T12:49:23.810Z,17.93
2023-04-12T12:51:52.519Z,18.11
2023-04-12T12:54:39.388Z,18.25
2023-04-12T12:57:08.471Z,18.37
2023-04-12T12:59:36.997Z,18.44
2023-04-12T13:02:05.413Z,18.56
2023-04-12T13:04:34.127Z,18.65
2023-04-12T13:07:02.444Z,18.75
2023-04-12T13:09:32.832Z,18.80
2023-04-12T13:12:03.901Z,18.80
2023-04-12T13:14:31.988Z,18.78
2023-04-12T13:17:00.208Z,18.75
2023-04-12T13:19:28.173Z,18.72
2023-04-12T13:21:57.236Z,18.68
2023-04-12T13:24:25.861Z,18.63
2023-04-12T13:26:55.609Z,18.55
2023-04-12T13:29:24.034Z,18.41
2023-04-12T13:31:52.266Z,18.30
2023-04-12T13:34:20.525Z,18.19
2023-04-12T13:36:48.822Z,18.08
2023-04-12T13:39:17.482Z,17.96
2023-04-12T13:41:46.356Z,17.87
2023-04-12T13:44:16.049Z,17.78
2023-04-12T13:46:44.222Z,17.69
2023-04-12T13:49:13.066Z,17.62
2023-04-12T13:51:41.254Z,17.61
2023-04-12T13:54:09.823Z,17.66
2023-04-12T13:56:37.832Z,17.70
2023-04-12T13:59:06.668Z,17.77
2023-04-12T14:01:36.319Z,17.89
2023-04-12T14:04:04.845Z,18.05
2023-04-12T14:06:34.278Z,18.20
2023-04-12T14:09:02.623Z,18.29
2023-04-12T14:11:30.790Z,18.32
2023-04-12T14:13:59.295Z,18.37
2023-04-12T14:16:27.838Z,18.49
2023-04-12T14:18:57.832Z,18.63
2023-04-12T14:21:29.039Z,18.71
2023-04-12T14:23:57.726Z,18.77
2023-04-12T14:26:26.262Z,18.80
2023-04-12T14:28:55.060Z,18.83
2023-04-12T14:31:23.320Z,18.81
2023-04-12T14:33:51.467Z,18.78
2023-04-12T14:36:21.698Z,18.76
2023-04-12T14:38:50.865Z,18.76
2023-04-12T14:41:19.264Z,18.76
2023-04-12T14:43:47.621Z,18.75
2023-04-12T14:46:18.545Z,18.76
2023-04-12T14:48:47.103Z,18.72
2023-04-12T14:51:15.318Z,18.67
2023-04-12T14:53:44.907Z,18.58
2023-04-12T14:56:25.191Z,18.46
2023-04-12T14:58:55.867Z,18.42
2023-04-12T15:01:25.425Z,18.37
2023-04-12T15:03:54.813Z,18.30
2023-04-12T15:06:26.092Z,18.20
2023-04-12T15:08:57.422Z,18.15
2023-04-12T15:11:27.311Z,18.10
2023-04-12T15:13:56.324Z,18.05
2023-04-12T15:16:24.641Z,18.03
2023-04-12T15:18:53.202Z,17.93
2023-04-12T15:21:21.676Z,17.89
2023-04-12T15:23:50.981Z,17.88
2023-04-12T15:26:20.865Z,17.84
2023-04-12T15:28:48.939Z,17.82
2023-04-12T15:31:17.017Z,17.76
2023-04-12T15:33:47.263Z,17.71
2023-04-12T15:36:16.998Z,17.71
2023-04-12T15:38:45.075Z,17.66
2023-04-12T15:41:13.097Z,17.62
2023-04-12T15:43:45.419Z,17.58
2023-04-12T15:46:14.888Z,17.53
2023-04-12T15:48:43.542Z,17.52
2023-04-12T15:51:12.618Z,17.51
2023-04-12T15:53:43.041Z,17.46
2023-04-12T15:56:14.357Z,17.46
2023-04-12T15:58:45.040Z,17.42
2023-04-12T16:01:14.022Z,17.41
2023-04-12T16:03:42.864Z,17.41
2023-04-12T16:06:12.853Z,17.34
2023-04-12T16:08:42.201Z,17.36
2023-04-12T16:11:12.176Z,17.37
2023-04-12T16:13:41.873Z,17.45
2023-04-12T16:16:12.913Z,17.51
2023-04-12T16:18:42.605Z,17.57
2023-04-12T16:21:12.767Z,17.64
2023-04-12T16:23:40.901Z,17.72
2023-04-12T16:26:09.797Z,17.86
2023-04-12T16:28:38.606Z,17.90
2023-04-12T16:31:07.973Z,17.85
2023-04-12T16:33:38.384Z,17.73
2023-04-12T16:36:08.097Z,17.66
2023-04-12T16:38:36.750Z,17.57
2023-04-12T16:41:06.314Z,17.49
2023-04-12T16:43:34.502Z,17.40
2023-04-12T16:46:05.991Z,17.36
2023-04-12T16:48:36.452Z,17.30
2023-04-12T16:51:08.186Z,17.21
2023-04-12T16:53:37.972Z,17.11
2023-04-12T16:56:06.966Z,17.16
2023-04-12T16:58:35.158Z,17.13
2023-04-12T17:01:03.534Z,17.07
2023-04-12T17:03:31.736Z,17.03
2023-04-12T17:06:00.314Z,17.03
2023-04-12T17:08:30.023Z,17.02
2023-04-12T17:10:58.712Z,17.00
2023-04-12T17:13:27.174Z,16.98
2023-04-12T17:15:55.606Z,16.98
2023-04-12T17:18:24.257Z,16.98
2023-04-12T17:20:52.783Z,16.94
2023-04-12T17:23:21.246Z,16.90
2023-04-12T17:25:51.194Z,16.86
2023-04-12T17:28:19.583Z,16.80
2023-04-12T17:30:47.577Z,16.75
2023-04-12T17:33:19.056Z,16.68
2023-04-12T17:35:47.588Z,16.62
2023-04-12T17:38:16.270Z,16.58
2023-04-12T17:40:44.307Z,16.53
2023-04-12T17:43:15.594Z,16.51
2023-04-12T17:45:43.682Z,16.47
2023-04-12T17:48:14.988Z,16.45
2023-04-12T17:50:45.569Z,16.43
2023-04-12T17:53:14.103Z,16.43
2023-04-12T17:55:42.713Z,16.45
2023-04-12T17:58:11.107Z,16.44
2023-04-12T18:00:43.875Z,16.43
2023-04-12T18:03:13.317Z,16.41
2023-04-12T18:05:43.053Z,16.34
2023-04-12T18:08:11.223Z,16.29
2023-04-12T18:10:40.336Z,16.29
2023-04-12T18:13:09.990Z,16.23
2023-04-12T18:15:38.970Z,16.18
2023-04-12T18:18:09.368Z,16.14
2023-04-12T18:20:39.557Z,16.05
2023-04-12T18:23:07.600Z,15.93
2023-04-12T18:25:35.730Z,15.81
2023-04-12T18:28:03.673Z,15.72
2023-04-12T18:30:32.258Z,15.64
2023-04-12T18:33:03.284Z,15.55
2023-04-12T18:35:33.921Z,15.43
2023-04-12T18:38:02.069Z,15.34
2023-04-12T18:40:30.103Z,15.23
2023-04-12T18:42:59.345Z,15.15
2023-04-12T18:45:27.666Z,15.08
2023-04-12T18:47:57.167Z,14.98
2023-04-12T18:50:26.052Z,14.89
2023-04-12T18:52:55.971Z,14.86
2023-04-12T18:55:24.777Z,14.78
2023-04-12T18:57:53.207Z,14.68
2023-04-12T19:00:21.773Z,14.62
2023-04-12T19:02:51.078Z,14.55
2023-04-12T19:05:21.930Z,14.52
2023-04-12T19:07:50.209Z,14.50
2023-04-12T19:10:20.114Z,14.44
2023-04-12T19:12:48.302Z,14.35
2023-04-12T19:15:16.404Z,14.30
2023-04-12T19:17:44.852Z,14.24
2023-04-12T19:20:13.439Z,14.17
2023-04-12T19:22:42.204Z,14.14
2023-04-12T19:25:11.596Z,14.12
2023-04-12T19:27:41.646Z,14.07
2023-04-12T19:30:13.381Z,14.07
2023-04-12T19:32:42.703Z,14.07
2023-04-12T19:35:11.479Z,14.04
2023-04-12T19:37:41.795Z,14.04
2023-04-12T19:40:14.229Z,14.02
2023-04-12T19:42:44.211Z,14.00
2023-04-12T19:45:13.194Z,13.92
2023-04-12T19:47:44.946Z,13.86
2023-04-12T19:50:15.575Z,13.82
2023-04-12T19:52:45.203Z,13.77
2023-04-12T19:55:15.079Z,13.76
2023-04-12T19:57:46.196Z,13.74
2023-04-12T20:00:19.945Z,13.70
2023-04-12T20:02:49.674Z,13.71
2023-04-12T20:05:19.354Z,13.67
2023-04-12T20:07:47.683Z,13.68
2023-04-12T20:10:16.224Z,13.64
2023-04-12T20:12:46.817Z,13.59
2023-04-12T20:15:15.362Z,13.57
2023-04-12T20:17:44.718Z,13.56
2023-04-12T20:20:14.658Z,13.52
2023-04-12T20:22:46.009Z,13.50
2023-04-12T20:25:14.756Z,13.52
2023-04-12T20:27:45.047Z,13.46
2023-04-12T20:30:18.299Z,13.51
2023-04-12T20:32:46.488Z,13.53
2023-04-12T20:35:15.299Z,13.54
2023-04-12T20:37:43.480Z,13.48
2023-04-12T20:40:12.901Z,13.53
2023-04-12T20:42:42.509Z,13.59
2023-04-12T20:45:12.019Z,13.58
2023-04-12T20:47:41.686Z,13.54
2023-04-12T20:50:10.735Z,13.54
2023-04-12T20:52:39.108Z,13.47
2023-04-12T20:55:07.939Z,13.39
2023-04-12T20:57:37.017Z,13.33
2023-04-12T21:00:13.692Z,13.30
2023-04-12T21:02:43.420Z,13.25
2023-04-12T21:05:18.116Z,13.18
2023-04-12T21:07:46.882Z,13.15
2023-04-12T21:10:16.471Z,13.11
2023-04-12T21:12:45.305Z,13.05
2023-04-12T21:15:14.566Z,13.03
2023-04-12T21:17:44.517Z,13.00
2023-04-12T21:20:14.564Z,12.97
2023-04-12T21:22:44.465Z,12.94
2023-04-12T21:25:16.277Z,12.90
2023-04-12T21:27:47.298Z,12.89
2023-04-12T21:30:16.350Z,12.90
2023-04-12T21:32:48.321Z,12.90
2023-04-12T21:35:20.737Z,12.88
2023-04-12T21:37:49.414Z,12.84
2023-04-12T21:40:18.313Z,12.83
2023-04-12T21:42:46.449Z,12.77
2023-04-12T21:45:14.983Z,12.73
2023-04-12T21:47:45.392Z,12.70
2023-04-12T21:50:14.711Z,12.70
2023-04-12T21:52:44.309Z,12.69
2023-04-12T21:55:12.892Z,12.65
2023-04-12T21:57:41.847Z,12.60
2023-04-12T22:00:10.932Z,12.54
2023-04-12T22:02:42.384Z,12.50
2023-04-12T22:05:12.082Z,12.46
2023-04-12T22:07:41.260Z,12.25
2023-04-12T22:10:11.909Z,12.32
2023-04-12T22:12:40.961Z,12.31
2023-04-12T22:15:11.905Z,12.32
2023-04-12T22:17:40.914Z,12.35
2023-04-12T22:20:12.654Z,12.35
2023-04-12T22:22:41.830Z,12.34
2023-04-12T22:25:15.249Z,12.34
2023-04-12T22:27:46.556Z,12.32
2023-04-12T22:30:16.204Z,12.31
2023-04-12T22:32:44.518Z,12.28
2023-04-12T22:35:14.038Z,12.23
2023-04-12T22:37:43.464Z,12.18
2023-04-12T22:40:13.507Z,12.15
2023-04-12T22:42:47.033Z,12.12
2023-04-12T22:45:15.977Z,11.98
2023-04-12T22:47:44.720Z,11.87
2023-04-12T22:50:15.115Z,11.84
2023-04-12T22:52:43.545Z,11.80
2023-04-12T22:55:14.258Z,11.75
2023-04-12T22:57:42.478Z,11.70
2023-04-12T23:00:16.545Z,11.66
2023-04-12T23:02:46.543Z,11.64
2023-04-12T23:05:16.646Z,11.18
2023-04-12T23:07:44.706Z,11.06
2023-04-12T23:10:13.385Z,10.99
2023-04-12T23:12:41.604Z,11.09
2023-04-12T23:15:11.066Z,11.24
2023-04-12T23:17:39.685Z,11.34
2023-04-12T23:20:13.258Z,11.25
2023-04-12T23:22:57.825Z,10.98
2023-04-12T23:25:37.846Z,10.88
2023-04-12T23:28:13.609Z,10.99
2023-04-12T23:30:47.771Z,11.07
2023-04-12T23:33:18.048Z,11.11
2023-04-12T23:35:50.027Z,11.21
2023-04-12T23:38:32.467Z,11.33
2023-04-12T23:41:02.455Z,11.36
2023-04-12T23:43:32.447Z,11.38
2023-04-12T23:46:00.829Z,11.45
2023-04-12T23:48:29.467Z,11.53
2023-04-12T23:50:57.742Z,11.59
2023-04-12T23:53:27.483Z,11.87
2023-04-12T23:55:55.751Z,12.07
2023-04-12T23:58:25.386Z,12.25
